Latest METARs, TAFs and NOTAMs for MROC


---------------------------------------------------------------------------
	(OBSERVATIONS)
MROC 171400Z 10009KT 060V150 CAVOK 24/14 A3009 NOSIG=
MROC 171300Z 08006KT 050V110 CAVOK 21/15 A3006 NOSIG=
MROC 171200Z 08008KT 9999 FEW035 19/15 A3004 NOSIG=
---------------------------------------------------------------------------
	(TERMINAL AREA FORECAST)
MROC 171100Z 1712/1812 08007KT 9999 FEW035
    TX31/1719Z TN18/1811Z
    BECMG 1716/1717 24008KT
    TEMPO 1721/1724 BKN030
    BECMG 1801/1803 09009KT=
---------------------------------------------------------------------------
	(NOTAMS)


MROC A0008/19 TRIGGER NOTAM - PERM COSTA RICA AIRAC AIP SUP 04/19
    WEF 28 FEB 2019. PAPI RWY 25 OPR AT JUAN SANTAMARIA INTERNATIONAL
    AIRPORT. 28 FEB 00:00 2019 UNTIL 13 MAR 23:59 2019. CREATED:
    03 JAN 15:09 2019

MROC A0012/19 REF AIRAC AMDT NR 22 EFFECTIVE DATE 01 FEB 18,
    MROC AD 10.5 RNP W2 RWY 25 (AR) AVBL FOR ACFT CAT D. 31 JAN
    00:58 2019 UNTIL PERM. CREATED: 31 JAN 01:05 2019

MROC A0014/19 REF AIRAC AMDT NR 22 EFFECTIVE DATE 01 FEB 18 MROC
    AD 10.6 RNP E2 RWY 25 (AR) AVBL FOR ACFT CAT D. 31 JAN 01:03
    2019 UNTIL PERM. CREATED: 31 JAN 01:09 2019

MROC A0019/19 REF AIRAC SUP A20/18 STAR RNAV CUARE OROSI HOLDING
    PATTERN MINIMUN ALTITUDE READ 14000FT INSTEAD OF 12000FT.
    31 JAN 01:13 2019 UNTIL PERM. CREATED: 31 JAN 01:20 2019

MROC A0026/19 ASCENT OF FREE BALLOON MET SONDA WILL TAKE PLACE
    CENTERED AT COORD 0956N 08402W CTN ADVISED. SFC - UNL, EVERY
    FRI 1200-1400 1700-2100 SAT FEB 09 1700-2100 SAT MAR 09 1700-2100,
    11 JAN 12:00 2019 UNTIL 20 DEC 21:00 2019 ESTIMATED. CREATED:
    07 JAN 20:01 2019

MROC A0033/19 REF SUP AIRAC 20/18 SID RNAV DEPARTURE TEJAR 4M
    TEJAR 4B TEJAR 4I TEJAR 4T ALTITUDE RESTRICTION ELIMINATED
    IN FIXED OC265. 31 JAN 01:36 2019 UNTIL PERM. CREATED: 31
    JAN 01:43 2019

MROC A0034/19 TWY G NORTH SIDE NOT AVBL TO ACFT WINGSPAN GREATER
    THAN 52M. 14 JAN 12:00 2019 UNTIL 14 APR 23:59 2019. CREATED:
    08 JAN 00:02 2019

MROC A0040/19 TRIGGER NOTAM COSTA RICA AIRAC AIP SUP 04/19 WEF
    28 FEB 2019 PAPI RWY 25 OPR AT JUAN SANTAMARIA INTL AP. 28
    FEB 00:00 2019 UNTIL 13 MAR 23:59 2019. CREATED: 31 JAN 01:55
    2019

MROC A0050/19 TWY G NORTH SIDE NOT AVBL FOR ACFT WINGSPAN GREATER
    THAN 52M. 31 JAN 02:09 2019 UNTIL 14 APR 23:59 2019. CREATED:
    31 JAN 02:14 2019

MROC A0144/19 GLIDE PATH RWY 07 ILS/DME CAT I IOCO 109.5MHZ/32X
    U/S. 16 FEB 14:56 2019 UNTIL 15 MAR 23:59 2019. CREATED:
    16 FEB 14:59 2019

MROC A0146/19 TWY G NORTH SIDE CLSD. 27 FEB 05:00 2019 UNTIL
    27 FEB 20:00 2019. CREATED: 25 JAN 13:51 2019

MROC V0018/19 [US DOD PROCEDURAL NOTAM] INSTRUMENT APPROACH PROCEDURE
    NOT AUTHORIZED VOR/DME RWY 07. 14 JAN 19:19 2019 UNTIL 25
    APR 23:59 2019. CREATED: 14 JAN 19:19 2019

---------------------------------------------------------------------------